sensor_id;sensor_type;location;lat;lon;timestamp;temperature;humidity
37410;DHT22;23275;48.914;12.566;2022-12-07T00:00:29;3.20;99.90
37410;DHT22;23275;48.914;12.566;2022-12-07T00:02:55;3.20;99.90
37410;DHT22;23275;48.914;12.566;2022-12-07T00:05:21;3.20;99.90
37410;DHT22;23275;48.914;12.566;2022-12-07T00:07:46;3.20;99.90
37410;DHT22;23275;48.914;12.566;2022-12-07T00:10:12;3.30;99.90
37410;DHT22;23275;48.914;12.566;2022-12-07T00:12:37;3.30;99.90
37410;DHT22;23275;48.914;12.566;2022-12-07T00:15:03;3.20;99.90
37410;DHT22;23275;48.914;12.566;2022-12-07T00:17:28;3.30;99.90
37410;DHT22;23275;48.914;12.566;2022-12-07T00:19:54;3.20;99.90
37410;DHT22;23275;48.914;12.566;2022-12-07T00:22:20;3.20;99.90
37410;DHT22;23275;48.914;12.566;2022-12-07T00:24:45;3.20;99.90
37410;DHT22;23275;48.914;12.566;2022-12-07T00:27:11;3.20;99.90
37410;DHT22;23275;48.914;12.566;2022-12-07T00:29:36;3.20;99.90
37410;DHT22;23275;48.914;12.566;2022-12-07T00:32:02;3.20;99.90
37410;DHT22;23275;48.914;12.566;2022-12-07T00:34:28;3.20;99.90
37410;DHT22;23275;48.914;12.566;2022-12-07T00:36:53;3.20;99.90
37410;DHT22;23275;48.914;12.566;2022-12-07T00:39:19;3.20;99.90
37410;DHT22;23275;48.914;12.566;2022-12-07T00:41:44;3.20;99.90
37410;DHT22;23275;48.914;12.566;2022-12-07T00:44:10;3.20;99.90
37410;DHT22;23275;48.914;12.566;2022-12-07T00:46:36;3.20;99.90
37410;DHT22;23275;48.914;12.566;2022-12-07T00:49:01;3.20;99.90
37410;DHT22;23275;48.914;12.566;2022-12-07T00:51:27;3.20;99.90
37410;DHT22;23275;48.914;12.566;2022-12-07T00:53:53;3.20;99.90
37410;DHT22;23275;48.914;12.566;2022-12-07T00:56:21;3.20;99.90
37410;DHT22;23275;48.914;12.566;2022-12-07T00:58:59;3.20;99.90
37410;DHT22;23275;48.914;12.566;2022-12-07T01:01:28;3.20;99.90
37410;DHT22;23275;48.914;12.566;2022-12-07T01:03:54;3.20;99.90
37410;DHT22;23275;48.914;12.566;2022-12-07T01:06:21;3.20;99.90
37410;DHT22;23275;48.914;12.566;2022-12-07T01:08:46;3.20;99.90
37410;DHT22;23275;48.914;12.566;2022-12-07T01:11:15;3.20;99.90
37410;DHT22;23275;48.914;12.566;2022-12-07T01:13:41;3.20;99.90
37410;DHT22;23275;48.914;12.566;2022-12-07T01:16:07;3.20;99.90
37410;DHT22;23275;48.914;12.566;2022-12-07T01:18:35;3.20;99.90
37410;DHT22;23275;48.914;12.566;2022-12-07T01:21:05;3.10;99.90
37410;DHT22;23275;48.914;12.566;2022-12-07T01:23:33;3.10;99.90
37410;DHT22;23275;48.914;12.566;2022-12-07T01:26:02;3.10;99.90
37410;DHT22;23275;48.914;12.566;2022-12-07T01:28:28;3.10;99.90
37410;DHT22;23275;48.914;12.566;2022-12-07T01:30:58;3.00;99.90
37410;DHT22;23275;48.914;12.566;2022-12-07T01:33:24;3.00;99.90
37410;DHT22;23275;48.914;12.566;2022-12-07T01:35:51;3.10;99.90
37410;DHT22;23275;48.914;12.566;2022-12-07T01:38:17;3.00;99.90
37410;DHT22;23275;48.914;12.566;2022-12-07T01:40:42;3.00;99.90
37410;DHT22;23275;48.914;12.566;2022-12-07T01:43:17;3.00;99.90
37410;DHT22;23275;48.914;12.566;2022-12-07T01:45:43;3.00;99.90
37410;DHT22;23275;48.914;12.566;2022-12-07T01:48:11;3.00;99.90
37410;DHT22;23275;48.914;12.566;2022-12-07T01:50:38;3.00;99.90
37410;DHT22;23275;48.914;12.566;2022-12-07T01:53:07;3.00;99.90
37410;DHT22;23275;48.914;12.566;2022-12-07T01:55:35;3.00;99.90
37410;DHT22;23275;48.914;12.566;2022-12-07T01:58:02;3.00;99.90
37410;DHT22;23275;48.914;12.566;2022-12-07T02:00:28;2.90;99.90
37410;DHT22;23275;48.914;12.566;2022-12-07T02:03:04;2.90;99.90
37410;DHT22;23275;48.914;12.566;2022-12-07T02:05:31;2.90;99.90
37410;DHT22;23275;48.914;12.566;2022-12-07T02:07:58;3.00;99.90
37410;DHT22;23275;48.914;12.566;2022-12-07T02:10:26;2.90;99.90
37410;DHT22;23275;48.914;12.566;2022-12-07T02:13:05;2.90;99.90
37410;DHT22;23275;48.914;12.566;2022-12-07T02:15:45;2.90;99.90
37410;DHT22;23275;48.914;12.566;2022-12-07T02:18:22;2.90;99.90
37410;DHT22;23275;48.914;12.566;2022-12-07T02:20:58;2.90;99.90
37410;DHT22;23275;48.914;12.566;2022-12-07T02:26:19;2.90;99.90
37410;DHT22;23275;48.914;12.566;2022-12-07T02:29:10;2.90;99.90
37410;DHT22;23275;48.914;12.566;2022-12-07T02:34:24;2.90;99.90
37410;DHT22;23275;48.914;12.566;2022-12-07T02:36:57;2.90;99.90
37410;DHT22;23275;48.914;12.566;2022-12-07T02:39:34;2.90;99.90
37410;DHT22;23275;48.914;12.566;2022-12-07T02:42:09;2.90;99.90
37410;DHT22;23275;48.914;12.566;2022-12-07T02:44:36;2.90;99.90
37410;DHT22;23275;48.914;12.566;2022-12-07T02:47:07;3.00;99.90
37410;DHT22;23275;48.914;12.566;2022-12-07T02:49:36;2.90;99.90
37410;DHT22;23275;48.914;12.566;2022-12-07T02:52:03;3.00;99.90
37410;DHT22;23275;48.914;12.566;2022-12-07T02:54:29;2.90;99.90
37410;DHT22;23275;48.914;12.566;2022-12-07T03:08:00;2.90;99.90
37410;DHT22;23275;48.914;12.566;2022-12-07T03:10:39;2.90;99.90
37410;DHT22;23275;48.914;12.566;2022-12-07T03:16:17;2.90;99.90
37410;DHT22;23275;48.914;12.566;2022-12-07T03:18:59;2.90;99.90
37410;DHT22;23275;48.914;12.566;2022-12-07T03:22:00;2.80;99.90
37410;DHT22;23275;48.914;12.566;2022-12-07T03:24:38;2.80;99.90
37410;DHT22;23275;48.914;12.566;2022-12-07T03:27:23;2.80;99.90
37410;DHT22;23275;48.914;12.566;2022-12-07T03:29:58;2.80;99.90
37410;DHT22;23275;48.914;12.566;2022-12-07T03:35:33;2.80;99.90
37410;DHT22;23275;48.914;12.566;2022-12-07T03:38:02;2.80;99.90
37410;DHT22;23275;48.914;12.566;2022-12-07T03:40:35;2.70;99.90
37410;DHT22;23275;48.914;12.566;2022-12-07T03:43:03;2.70;99.90
37410;DHT22;23275;48.914;12.566;2022-12-07T03:45:39;2.70;99.90
37410;DHT22;23275;48.914;12.566;2022-12-07T03:48:28;2.80;99.90
37410;DHT22;23275;48.914;12.566;2022-12-07T03:51:08;2.80;99.90
37410;DHT22;23275;48.914;12.566;2022-12-07T03:53:41;2.80;99.90
37410;DHT22;23275;48.914;12.566;2022-12-07T03:56:09;2.80;99.90
37410;DHT22;23275;48.914;12.566;2022-12-07T03:58:36;2.70;99.90
37410;DHT22;23275;48.914;12.566;2022-12-07T04:01:02;2.80;99.90
37410;DHT22;23275;48.914;12.566;2022-12-07T04:03:28;2.80;99.90
37410;DHT22;23275;48.914;12.566;2022-12-07T04:05:54;2.80;99.90
37410;DHT22;23275;48.914;12.566;2022-12-07T04:08:20;2.70;99.90
37410;DHT22;23275;48.914;12.566;2022-12-07T04:10:45;2.70;99.90
37410;DHT22;23275;48.914;12.566;2022-12-07T04:13:11;2.70;99.90
37410;DHT22;23275;48.914;12.566;2022-12-07T04:15:36;2.70;99.90
37410;DHT22;23275;48.914;12.566;2022-12-07T04:18:02;2.70;99.90
37410;DHT22;23275;48.914;12.566;2022-12-07T04:20:28;2.70;99.90
37410;DHT22;23275;48.914;12.566;2022-12-07T04:22:53;2.70;99.90
37410;DHT22;23275;48.914;12.566;2022-12-07T04:25:19;2.70;99.90
37410;DHT22;23275;48.914;12.566;2022-12-07T04:27:44;2.60;99.90
37410;DHT22;23275;48.914;12.566;2022-12-07T04:30:10;2.60;99.90
37410;DHT22;23275;48.914;12.566;2022-12-07T04:32:36;2.70;99.90
37410;DHT22;23275;48.914;12.566;2022-12-07T04:35:02;2.70;99.90
37410;DHT22;23275;48.914;12.566;2022-12-07T04:37:27;2.60;99.90
37410;DHT22;23275;48.914;12.566;2022-12-07T04:39:53;2.60;99.90
37410;DHT22;23275;48.914;12.566;2022-12-07T04:42:18;2.60;99.90
37410;DHT22;23275;48.914;12.566;2022-12-07T04:44:44;2.70;99.90
37410;DHT22;23275;48.914;12.566;2022-12-07T04:47:09;2.60;99.90
37410;DHT22;23275;48.914;12.566;2022-12-07T04:49:35;2.60;99.90
37410;DHT22;23275;48.914;12.566;2022-12-07T04:52:00;2.60;99.90
37410;DHT22;23275;48.914;12.566;2022-12-07T04:54:26;2.60;99.90
37410;DHT22;23275;48.914;12.566;2022-12-07T04:56:52;2.70;99.90
37410;DHT22;23275;48.914;12.566;2022-12-07T04:59:17;2.60;99.90
37410;DHT22;23275;48.914;12.566;2022-12-07T05:01:43;2.50;99.90
37410;DHT22;23275;48.914;12.566;2022-12-07T05:04:09;2.50;99.90
37410;DHT22;23275;48.914;12.566;2022-12-07T05:06:34;2.50;99.90
37410;DHT22;23275;48.914;12.566;2022-12-07T05:09:00;2.50;99.90
37410;DHT22;23275;48.914;12.566;2022-12-07T05:11:26;2.50;99.90
37410;DHT22;23275;48.914;12.566;2022-12-07T05:14:11;2.50;99.90
37410;DHT22;23275;48.914;12.566;2022-12-07T05:16:38;2.50;99.90
37410;DHT22;23275;48.914;12.566;2022-12-07T05:19:04;2.50;99.90
37410;DHT22;23275;48.914;12.566;2022-12-07T05:21:30;2.50;99.90
37410;DHT22;23275;48.914;12.566;2022-12-07T05:23:55;2.50;99.90
37410;DHT22;23275;48.914;12.566;2022-12-07T05:26:21;2.50;99.90
37410;DHT22;23275;48.914;12.566;2022-12-07T05:28:54;2.50;99.90
37410;DHT22;23275;48.914;12.566;2022-12-07T05:31:20;2.50;99.90
37410;DHT22;23275;48.914;12.566;2022-12-07T05:33:46;2.40;99.90
37410;DHT22;23275;48.914;12.566;2022-12-07T05:36:11;2.30;99.90
37410;DHT22;23275;48.914;12.566;2022-12-07T05:38:37;2.30;99.90
37410;DHT22;23275;48.914;12.566;2022-12-07T05:41:04;2.20;99.90
37410;DHT22;23275;48.914;12.566;2022-12-07T05:43:30;2.20;99.90
37410;DHT22;23275;48.914;12.566;2022-12-07T05:45:56;2.20;99.90
37410;DHT22;23275;48.914;12.566;2022-12-07T05:48:22;2.10;99.90
37410;DHT22;23275;48.914;12.566;2022-12-07T05:50:48;2.00;99.90
37410;DHT22;23275;48.914;12.566;2022-12-07T05:53:14;2.00;99.90
37410;DHT22;23275;48.914;12.566;2022-12-07T05:55:40;1.90;99.90
37410;DHT22;23275;48.914;12.566;2022-12-07T05:58:05;1.80;99.90
37410;DHT22;23275;48.914;12.566;2022-12-07T06:00:50;1.80;99.90
37410;DHT22;23275;48.914;12.566;2022-12-07T06:03:15;1.70;99.90
37410;DHT22;23275;48.914;12.566;2022-12-07T06:05:41;1.60;99.90
37410;DHT22;23275;48.914;12.566;2022-12-07T06:08:07;1.50;99.90
37410;DHT22;23275;48.914;12.566;2022-12-07T06:10:32;1.40;99.90
37410;DHT22;23275;48.914;12.566;2022-12-07T06:12:58;1.30;99.90
37410;DHT22;23275;48.914;12.566;2022-12-07T06:15:23;1.30;99.90
37410;DHT22;23275;48.914;12.566;2022-12-07T06:17:49;1.30;99.90
37410;DHT22;23275;48.914;12.566;2022-12-07T06:20:14;1.30;99.90
37410;DHT22;23275;48.914;12.566;2022-12-07T06:22:40;1.30;99.90
37410;DHT22;23275;48.914;12.566;2022-12-07T06:25:06;1.30;99.90
37410;DHT22;23275;48.914;12.566;2022-12-07T06:27:32;1.30;99.90
37410;DHT22;23275;48.914;12.566;2022-12-07T06:29:58;1.30;99.90
37410;DHT22;23275;48.914;12.566;2022-12-07T06:32:24;1.30;99.90
37410;DHT22;23275;48.914;12.566;2022-12-07T06:34:49;1.30;99.90
37410;DHT22;23275;48.914;12.566;2022-12-07T06:37:15;1.30;99.90
37410;DHT22;23275;48.914;12.566;2022-12-07T06:39:41;1.30;99.90
37410;DHT22;23275;48.914;12.566;2022-12-07T06:42:06;1.30;99.90
37410;DHT22;23275;48.914;12.566;2022-12-07T06:44:32;1.30;99.90
37410;DHT22;23275;48.914;12.566;2022-12-07T06:46:58;1.30;99.90
37410;DHT22;23275;48.914;12.566;2022-12-07T06:49:23;1.30;99.90
37410;DHT22;23275;48.914;12.566;2022-12-07T06:51:49;1.30;99.90
37410;DHT22;23275;48.914;12.566;2022-12-07T06:54:15;1.30;99.90
37410;DHT22;23275;48.914;12.566;2022-12-07T06:56:41;1.30;99.90
37410;DHT22;23275;48.914;12.566;2022-12-07T06:59:06;1.30;99.90
37410;DHT22;23275;48.914;12.566;2022-12-07T07:01:33;1.30;99.90
37410;DHT22;23275;48.914;12.566;2022-12-07T07:03:59;1.30;99.90
37410;DHT22;23275;48.914;12.566;2022-12-07T07:06:25;1.30;99.90
37410;DHT22;23275;48.914;12.566;2022-12-07T07:08:50;1.40;99.90
37410;DHT22;23275;48.914;12.566;2022-12-07T07:11:16;1.50;99.90
37410;DHT22;23275;48.914;12.566;2022-12-07T07:13:42;1.70;99.90
37410;DHT22;23275;48.914;12.566;2022-12-07T07:16:08;1.80;99.90
37410;DHT22;23275;48.914;12.566;2022-12-07T07:18:33;1.90;99.90
37410;DHT22;23275;48.914;12.566;2022-12-07T07:20:59;2.00;99.90
37410;DHT22;23275;48.914;12.566;2022-12-07T07:23:26;2.00;99.90
37410;DHT22;23275;48.914;12.566;2022-12-07T07:25:52;2.00;99.90
37410;DHT22;23275;48.914;12.566;2022-12-07T07:28:17;2.10;99.90
37410;DHT22;23275;48.914;12.566;2022-12-07T07:30:43;2.00;99.90
37410;DHT22;23275;48.914;12.566;2022-12-07T07:33:10;2.10;99.90
37410;DHT22;23275;48.914;12.566;2022-12-07T07:35:36;2.10;99.90
37410;DHT22;23275;48.914;12.566;2022-12-07T07:38:02;2.10;99.90
37410;DHT22;23275;48.914;12.566;2022-12-07T07:40:28;2.20;99.90
37410;DHT22;23275;48.914;12.566;2022-12-07T07:42:54;2.30;99.90
37410;DHT22;23275;48.914;12.566;2022-12-07T07:45:22;2.40;99.90
37410;DHT22;23275;48.914;12.566;2022-12-07T07:47:47;2.40;99.90
37410;DHT22;23275;48.914;12.566;2022-12-07T07:50:13;2.50;99.90
37410;DHT22;23275;48.914;12.566;2022-12-07T07:52:39;2.60;99.90
37410;DHT22;23275;48.914;12.566;2022-12-07T07:55:05;2.60;99.90
37410;DHT22;23275;48.914;12.566;2022-12-07T07:57:34;2.60;99.90
37410;DHT22;23275;48.914;12.566;2022-12-07T07:59:59;2.70;99.90
37410;DHT22;23275;48.914;12.566;2022-12-07T08:02:25;2.70;99.90
37410;DHT22;23275;48.914;12.566;2022-12-07T08:04:50;2.70;99.90
37410;DHT22;23275;48.914;12.566;2022-12-07T08:07:16;2.80;99.90
37410;DHT22;23275;48.914;12.566;2022-12-07T08:09:42;3.10;99.90
37410;DHT22;23275;48.914;12.566;2022-12-07T08:12:07;3.90;99.90
37410;DHT22;23275;48.914;12.566;2022-12-07T08:14:33;4.20;99.90
37410;DHT22;23275;48.914;12.566;2022-12-07T08:16:59;4.30;99.90
37410;DHT22;23275;48.914;12.566;2022-12-07T08:19:25;5.20;99.90
37410;DHT22;23275;48.914;12.566;2022-12-07T08:21:51;6.00;99.90
37410;DHT22;23275;48.914;12.566;2022-12-07T08:24:17;6.00;99.90
37410;DHT22;23275;48.914;12.566;2022-12-07T08:26:43;5.80;99.90
37410;DHT22;23275;48.914;12.566;2022-12-07T08:29:08;5.80;99.90
37410;DHT22;23275;48.914;12.566;2022-12-07T08:31:35;6.70;99.90
37410;DHT22;23275;48.914;12.566;2022-12-07T08:34:01;6.90;99.90
37410;DHT22;23275;48.914;12.566;2022-12-07T08:36:27;6.40;99.90
37410;DHT22;23275;48.914;12.566;2022-12-07T08:38:52;6.00;99.90
37410;DHT22;23275;48.914;12.566;2022-12-07T08:41:18;5.80;99.90
37410;DHT22;23275;48.914;12.566;2022-12-07T08:43:44;5.50;99.90
37410;DHT22;23275;48.914;12.566;2022-12-07T08:46:10;5.20;99.90
37410;DHT22;23275;48.914;12.566;2022-12-07T08:48:43;5.10;99.90
37410;DHT22;23275;48.914;12.566;2022-12-07T08:51:10;5.00;99.90
37410;DHT22;23275;48.914;12.566;2022-12-07T08:53:37;5.00;99.90
37410;DHT22;23275;48.914;12.566;2022-12-07T08:56:04;5.00;99.90
37410;DHT22;23275;48.914;12.566;2022-12-07T08:58:30;5.00;99.90
37410;DHT22;23275;48.914;12.566;2022-12-07T09:00:55;5.20;99.90
37410;DHT22;23275;48.914;12.566;2022-12-07T09:03:21;5.50;99.90
37410;DHT22;23275;48.914;12.566;2022-12-07T09:05:46;5.50;99.90
37410;DHT22;23275;48.914;12.566;2022-12-07T09:08:12;5.50;99.90
37410;DHT22;23275;48.914;12.566;2022-12-07T09:10:38;5.50;99.90
37410;DHT22;23275;48.914;12.566;2022-12-07T09:13:03;5.40;99.90
37410;DHT22;23275;48.914;12.566;2022-12-07T09:15:29;5.40;99.90
37410;DHT22;23275;48.914;12.566;2022-12-07T09:17:56;5.20;99.90
37410;DHT22;23275;48.914;12.566;2022-12-07T09:20:22;5.00;99.90
37410;DHT22;23275;48.914;12.566;2022-12-07T09:22:47;4.90;99.90
37410;DHT22;23275;48.914;12.566;2022-12-07T09:25:13;4.90;99.90
37410;DHT22;23275;48.914;12.566;2022-12-07T09:27:39;4.80;99.90
37410;DHT22;23275;48.914;12.566;2022-12-07T09:30:05;4.80;99.90
37410;DHT22;23275;48.914;12.566;2022-12-07T09:32:31;4.70;99.90
37410;DHT22;23275;48.914;12.566;2022-12-07T09:34:57;4.50;99.90
37410;DHT22;23275;48.914;12.566;2022-12-07T09:37:22;4.50;99.90
37410;DHT22;23275;48.914;12.566;2022-12-07T09:39:48;4.60;99.90
37410;DHT22;23275;48.914;12.566;2022-12-07T09:42:28;4.60;99.90
37410;DHT22;23275;48.914;12.566;2022-12-07T09:44:55;4.60;99.90
37410;DHT22;23275;48.914;12.566;2022-12-07T09:47:21;4.40;99.90
37410;DHT22;23275;48.914;12.566;2022-12-07T09:49:46;4.50;99.90
37410;DHT22;23275;48.914;12.566;2022-12-07T09:54:41;4.60;99.90
37410;DHT22;23275;48.914;12.566;2022-12-07T09:57:11;4.70;99.90
37410;DHT22;23275;48.914;12.566;2022-12-07T09:59:37;4.90;99.90
37410;DHT22;23275;48.914;12.566;2022-12-07T10:02:37;5.00;99.90
37410;DHT22;23275;48.914;12.566;2022-12-07T10:05:10;5.20;99.90
37410;DHT22;23275;48.914;12.566;2022-12-07T10:07:37;5.50;99.90
37410;DHT22;23275;48.914;12.566;2022-12-07T10:10:04;6.10;99.90
37410;DHT22;23275;48.914;12.566;2022-12-07T10:12:52;6.40;99.90
37410;DHT22;23275;48.914;12.566;2022-12-07T10:15:18;6.30;99.90
37410;DHT22;23275;48.914;12.566;2022-12-07T10:17:49;6.00;99.90
37410;DHT22;23275;48.914;12.566;2022-12-07T10:20:24;5.70;99.90
37410;DHT22;23275;48.914;12.566;2022-12-07T10:23:16;5.50;99.90
37410;DHT22;23275;48.914;12.566;2022-12-07T10:25:43;5.30;99.90
37410;DHT22;23275;48.914;12.566;2022-12-07T10:28:15;5.10;99.90
37410;DHT22;23275;48.914;12.566;2022-12-07T10:31:02;5.00;99.90
37410;DHT22;23275;48.914;12.566;2022-12-07T10:33:38;4.90;99.90
37410;DHT22;23275;48.914;12.566;2022-12-07T10:36:39;4.80;99.90
37410;DHT22;23275;48.914;12.566;2022-12-07T10:39:17;4.80;99.90
37410;DHT22;23275;48.914;12.566;2022-12-07T10:42:00;4.70;99.90
37410;DHT22;23275;48.914;12.566;2022-12-07T10:44:31;4.70;99.90
37410;DHT22;23275;48.914;12.566;2022-12-07T10:47:10;4.70;99.90
37410;DHT22;23275;48.914;12.566;2022-12-07T10:52:55;4.70;99.90
37410;DHT22;23275;48.914;12.566;2022-12-07T10:55:33;4.60;99.90
37410;DHT22;23275;48.914;12.566;2022-12-07T11:01:03;4.70;99.90
37410;DHT22;23275;48.914;12.566;2022-12-07T11:06:10;4.70;99.90
37410;DHT22;23275;48.914;12.566;2022-12-07T11:09:06;4.70;99.90
37410;DHT22;23275;48.914;12.566;2022-12-07T11:11:43;4.80;99.90
37410;DHT22;23275;48.914;12.566;2022-12-07T11:14:52;4.80;99.90
37410;DHT22;23275;48.914;12.566;2022-12-07T11:17:35;4.80;99.90
37410;DHT22;23275;48.914;12.566;2022-12-07T11:23:35;4.80;99.90
37410;DHT22;23275;48.914;12.566;2022-12-07T11:29:12;4.80;99.90
37410;DHT22;23275;48.914;12.566;2022-12-07T11:32:11;4.80;99.90
37410;DHT22;23275;48.914;12.566;2022-12-07T11:37:19;4.70;99.90
37410;DHT22;23275;48.914;12.566;2022-12-07T11:39:51;4.70;99.90
37410;DHT22;23275;48.914;12.566;2022-12-07T11:42:22;4.70;99.90
37410;DHT22;23275;48.914;12.566;2022-12-07T11:52:53;4.70;99.90
37410;DHT22;23275;48.914;12.566;2022-12-07T12:06:41;4.60;99.90
37410;DHT22;23275;48.914;12.566;2022-12-07T12:22:53;4.50;99.90
37410;DHT22;23275;48.914;12.566;2022-12-07T12:27:54;4.50;99.90
37410;DHT22;23275;48.914;12.566;2022-12-07T12:30:35;4.50;99.90
37410;DHT22;23275;48.914;12.566;2022-12-07T12:33:13;4.40;99.90
37410;DHT22;23275;48.914;12.566;2022-12-07T12:35:40;4.50;99.90
37410;DHT22;23275;48.914;12.566;2022-12-07T12:38:26;4.40;99.90
37410;DHT22;23275;48.914;12.566;2022-12-07T12:40:53;4.50;99.90
37410;DHT22;23275;48.914;12.566;2022-12-07T12:43:45;4.50;99.90
37410;DHT22;23275;48.914;12.566;2022-12-07T12:51:50;4.60;99.90
37410;DHT22;23275;48.914;12.566;2022-12-07T12:54:19;4.70;99.90
37410;DHT22;23275;48.914;12.566;2022-12-07T12:57:09;4.70;99.90
37410;DHT22;23275;48.914;12.566;2022-12-07T13:02:28;4.60;99.90
37410;DHT22;23275;48.914;12.566;2022-12-07T13:20:59;4.50;99.90
37410;DHT22;23275;48.914;12.566;2022-12-07T13:29:19;4.30;99.90
37410;DHT22;23275;48.914;12.566;2022-12-07T13:31:56;4.30;99.90
37410;DHT22;23275;48.914;12.566;2022-12-07T13:34:32;4.30;99.90
37410;DHT22;23275;48.914;12.566;2022-12-07T13:37:00;4.20;99.90
37410;DHT22;23275;48.914;12.566;2022-12-07T13:39:27;4.30;99.90
37410;DHT22;23275;48.914;12.566;2022-12-07T13:41:56;4.30;99.90
37410;DHT22;23275;48.914;12.566;2022-12-07T13:44:23;4.20;99.90
37410;DHT22;23275;48.914;12.566;2022-12-07T13:47:12;4.30;99.90
37410;DHT22;23275;48.914;12.566;2022-12-07T13:49:49;4.30;99.90
37410;DHT22;23275;48.914;12.566;2022-12-07T13:52:27;4.30;99.90
37410;DHT22;23275;48.914;12.566;2022-12-07T13:55:14;4.20;99.90
37410;DHT22;23275;48.914;12.566;2022-12-07T13:57:40;4.20;99.90
37410;DHT22;23275;48.914;12.566;2022-12-07T14:00:16;4.20;99.90
37410;DHT22;23275;48.914;12.566;2022-12-07T14:03:04;4.20;99.90
37410;DHT22;23275;48.914;12.566;2022-12-07T14:05:44;4.20;99.90
37410;DHT22;23275;48.914;12.566;2022-12-07T14:10:37;4.10;99.90
37410;DHT22;23275;48.914;12.566;2022-12-07T14:13:30;4.10;99.90
37410;DHT22;23275;48.914;12.566;2022-12-07T14:15:57;4.10;99.90
37410;DHT22;23275;48.914;12.566;2022-12-07T14:18:37;4.10;99.90
37410;DHT22;23275;48.914;12.566;2022-12-07T14:21:05;4.10;99.90
37410;DHT22;23275;48.914;12.566;2022-12-07T14:23:31;4.10;99.90
37410;DHT22;23275;48.914;12.566;2022-12-07T14:26:14;4.10;99.90
37410;DHT22;23275;48.914;12.566;2022-12-07T14:28:42;4.10;99.90
37410;DHT22;23275;48.914;12.566;2022-12-07T14:31:13;4.00;99.90
37410;DHT22;23275;48.914;12.566;2022-12-07T14:33:40;4.00;99.90
37410;DHT22;23275;48.914;12.566;2022-12-07T14:36:09;4.00;99.90
37410;DHT22;23275;48.914;12.566;2022-12-07T14:38:34;4.00;99.90
37410;DHT22;23275;48.914;12.566;2022-12-07T14:41:00;4.00;99.90
37410;DHT22;23275;48.914;12.566;2022-12-07T14:43:47;4.00;99.90
37410;DHT22;23275;48.914;12.566;2022-12-07T14:46:14;3.90;99.90
37410;DHT22;23275;48.914;12.566;2022-12-07T14:48:39;3.90;99.90
37410;DHT22;23275;48.914;12.566;2022-12-07T14:51:05;3.90;99.90
37410;DHT22;23275;48.914;12.566;2022-12-07T14:53:35;3.90;99.90
37410;DHT22;23275;48.914;12.566;2022-12-07T14:56:03;3.90;99.90
37410;DHT22;23275;48.914;12.566;2022-12-07T14:58:30;3.90;99.90
37410;DHT22;23275;48.914;12.566;2022-12-07T15:00:57;3.90;99.90
37410;DHT22;23275;48.914;12.566;2022-12-07T15:03:23;3.90;99.90
37410;DHT22;23275;48.914;12.566;2022-12-07T15:05:48;3.80;99.90
37410;DHT22;23275;48.914;12.566;2022-12-07T15:08:14;3.90;99.90
37410;DHT22;23275;48.914;12.566;2022-12-07T15:10:40;3.90;99.90
37410;DHT22;23275;48.914;12.566;2022-12-07T15:13:07;3.80;99.90
37410;DHT22;23275;48.914;12.566;2022-12-07T15:15:52;3.90;99.90
37410;DHT22;23275;48.914;12.566;2022-12-07T15:18:19;3.90;99.90
37410;DHT22;23275;48.914;12.566;2022-12-07T15:20:46;3.90;99.90
37410;DHT22;23275;48.914;12.566;2022-12-07T15:23:12;3.80;99.90
37410;DHT22;23275;48.914;12.566;2022-12-07T15:25:42;3.80;99.90
37410;DHT22;23275;48.914;12.566;2022-12-07T15:28:08;3.80;99.90
37410;DHT22;23275;48.914;12.566;2022-12-07T15:30:33;3.80;99.90
37410;DHT22;23275;48.914;12.566;2022-12-07T15:32:59;3.80;99.90
37410;DHT22;23275;48.914;12.566;2022-12-07T15:35:24;3.80;99.90
37410;DHT22;23275;48.914;12.566;2022-12-07T15:37:50;3.70;99.90
37410;DHT22;23275;48.914;12.566;2022-12-07T15:40:16;3.70;99.90
37410;DHT22;23275;48.914;12.566;2022-12-07T15:42:41;3.70;99.90
37410;DHT22;23275;48.914;12.566;2022-12-07T15:45:08;3.70;99.90
37410;DHT22;23275;48.914;12.566;2022-12-07T15:47:42;3.70;99.90
37410;DHT22;23275;48.914;12.566;2022-12-07T15:50:11;3.60;99.90
37410;DHT22;23275;48.914;12.566;2022-12-07T15:52:37;3.60;99.90
37410;DHT22;23275;48.914;12.566;2022-12-07T15:55:03;3.60;99.90
37410;DHT22;23275;48.914;12.566;2022-12-07T15:57:30;3.60;99.90
37410;DHT22;23275;48.914;12.566;2022-12-07T15:59:56;3.60;99.90
37410;DHT22;23275;48.914;12.566;2022-12-07T16:02:22;3.60;99.90
37410;DHT22;23275;48.914;12.566;2022-12-07T16:04:48;3.60;99.90
37410;DHT22;23275;48.914;12.566;2022-12-07T16:07:15;3.60;99.90
37410;DHT22;23275;48.914;12.566;2022-12-07T16:09:45;3.60;99.90
37410;DHT22;23275;48.914;12.566;2022-12-07T16:12:12;3.60;99.90
37410;DHT22;23275;48.914;12.566;2022-12-07T16:14:39;3.60;99.90
37410;DHT22;23275;48.914;12.566;2022-12-07T16:17:07;3.60;99.90
37410;DHT22;23275;48.914;12.566;2022-12-07T16:19:33;3.60;99.90
37410;DHT22;23275;48.914;12.566;2022-12-07T16:21:59;3.50;99.90
37410;DHT22;23275;48.914;12.566;2022-12-07T16:24:26;3.50;99.90
37410;DHT22;23275;48.914;12.566;2022-12-07T16:26:51;3.40;99.90
37410;DHT22;23275;48.914;12.566;2022-12-07T16:29:20;3.40;99.90
37410;DHT22;23275;48.914;12.566;2022-12-07T16:31:46;3.40;99.90
37410;DHT22;23275;48.914;12.566;2022-12-07T16:34:12;3.40;99.90
37410;DHT22;23275;48.914;12.566;2022-12-07T16:36:38;3.40;99.90
37410;DHT22;23275;48.914;12.566;2022-12-07T16:39:05;3.30;99.90
37410;DHT22;23275;48.914;12.566;2022-12-07T16:41:31;3.30;99.90
37410;DHT22;23275;48.914;12.566;2022-12-07T16:43:56;3.30;99.90
37410;DHT22;23275;48.914;12.566;2022-12-07T16:46:22;3.30;99.90
37410;DHT22;23275;48.914;12.566;2022-12-07T16:48:48;3.40;99.90
37410;DHT22;23275;48.914;12.566;2022-12-07T16:51:14;3.30;99.90
37410;DHT22;23275;48.914;12.566;2022-12-07T16:53:41;3.30;99.90
37410;DHT22;23275;48.914;12.566;2022-12-07T16:56:14;3.30;99.90
37410;DHT22;23275;48.914;12.566;2022-12-07T16:58:41;3.30;99.90
37410;DHT22;23275;48.914;12.566;2022-12-07T17:01:11;3.30;99.90
37410;DHT22;23275;48.914;12.566;2022-12-07T17:03:37;3.30;99.90
37410;DHT22;23275;48.914;12.566;2022-12-07T17:06:03;3.30;99.90
37410;DHT22;23275;48.914;12.566;2022-12-07T17:08:29;3.20;99.90
37410;DHT22;23275;48.914;12.566;2022-12-07T17:10:54;3.20;99.90
37410;DHT22;23275;48.914;12.566;2022-12-07T17:13:20;3.20;99.90
37410;DHT22;23275;48.914;12.566;2022-12-07T17:16:05;3.20;99.90
37410;DHT22;23275;48.914;12.566;2022-12-07T17:18:35;3.20;99.90
37410;DHT22;23275;48.914;12.566;2022-12-07T17:21:07;3.20;99.90
37410;DHT22;23275;48.914;12.566;2022-12-07T17:23:34;3.20;99.90
37410;DHT22;23275;48.914;12.566;2022-12-07T17:26:06;3.20;99.90
37410;DHT22;23275;48.914;12.566;2022-12-07T17:28:33;3.20;99.90
37410;DHT22;23275;48.914;12.566;2022-12-07T17:30:58;3.20;99.90
37410;DHT22;23275;48.914;12.566;2022-12-07T17:33:24;3.20;99.90